sensor_id;sensor_type;location;lat;lon;timestamp;pressure;altitude;pressure_sealevel;temperature;humidity
17649;BME280;8943;51.110;-4.158;2023-06-10T00:00:04;100682.44;;;25.52;39.07
17649;BME280;8943;51.110;-4.158;2023-06-10T00:02:35;100676.78;;;25.53;39.30
17649;BME280;8943;51.110;-4.158;2023-06-10T00:05:04;100676.13;;;25.51;39.18
17649;BME280;8943;51.110;-4.158;2023-06-10T00:07:32;100668.78;;;25.52;39.48
17649;BME280;8943;51.110;-4.158;2023-06-10T00:10:05;100668.38;;;25.55;39.44
17649;BME280;8943;51.110;-4.158;2023-06-10T00:12:33;100670.50;;;25.53;39.56
17649;BME280;8943;51.110;-4.158;2023-06-10T00:15:05;100669.22;;;25.49;39.54
17649;BME280;8943;51.110;-4.158;2023-06-10T00:17:36;100673.59;;;25.56;39.59
17649;BME280;8943;51.110;-4.158;2023-06-10T00:20:07;100670.88;;;25.56;39.73
17649;BME280;8943;51.110;-4.158;2023-06-10T00:22:39;100672.78;;;25.62;39.73
17649;BME280;8943;51.110;-4.158;2023-06-10T00:25:09;100672.59;;;25.57;39.89
17649;BME280;8943;51.110;-4.158;2023-06-10T00:27:38;100665.22;;;25.58;40.11
17649;BME280;8943;51.110;-4.158;2023-06-10T00:30:07;100677.19;;;25.63;39.76
17649;BME280;8943;51.110;-4.158;2023-06-10T00:32:37;100671.72;;;25.57;40.03
17649;BME280;8943;51.110;-4.158;2023-06-10T00:35:06;100662.69;;;25.63;40.30
17649;BME280;8943;51.110;-4.158;2023-06-10T00:37:35;100661.00;;;25.62;39.71
17649;BME280;8943;51.110;-4.158;2023-06-10T00:40:04;100664.59;;;25.62;40.23
17649;BME280;8943;51.110;-4.158;2023-06-10T00:42:32;100661.66;;;25.64;40.13
17649;BME280;8943;51.110;-4.158;2023-06-10T00:45:01;100651.59;;;25.58;40.24
17649;BME280;8943;51.110;-4.158;2023-06-10T00:47:29;100652.81;;;25.62;40.33
17649;BME280;8943;51.110;-4.158;2023-06-10T00:50:00;100648.41;;;25.61;40.57
17649;BME280;8943;51.110;-4.158;2023-06-10T00:52:29;100642.97;;;25.61;40.30
17649;BME280;8943;51.110;-4.158;2023-06-10T00:54:58;100642.34;;;25.59;40.45
17649;BME280;8943;51.110;-4.158;2023-06-10T00:57:26;100646.97;;;25.58;40.24
17649;BME280;8943;51.110;-4.158;2023-06-10T00:59:56;100642.75;;;25.62;40.41
17649;BME280;8943;51.110;-4.158;2023-06-10T01:02:25;100637.31;;;25.56;40.34
17649;BME280;8943;51.110;-4.158;2023-06-10T01:04:53;100631.84;;;25.56;40.49
17649;BME280;8943;51.110;-4.158;2023-06-10T01:07:24;100631.00;;;25.55;40.97
17649;BME280;8943;51.110;-4.158;2023-06-10T01:09:59;100624.50;;;25.56;40.52
17649;BME280;8943;51.110;-4.158;2023-06-10T01:12:34;100628.06;;;25.57;40.36
17649;BME280;8943;51.110;-4.158;2023-06-10T01:15:06;100627.25;;;25.50;40.65
17649;BME280;8943;51.110;-4.158;2023-06-10T01:17:54;100619.25;;;25.55;40.60
17649;BME280;8943;51.110;-4.158;2023-06-10T01:20:25;100617.59;;;25.54;40.35
17649;BME280;8943;51.110;-4.158;2023-06-10T01:22:55;100614.41;;;25.57;40.25
17649;BME280;8943;51.110;-4.158;2023-06-10T01:25:26;100611.03;;;25.61;40.17
17649;BME280;8943;51.110;-4.158;2023-06-10T01:28:02;100598.28;;;25.55;40.26
17649;BME280;8943;51.110;-4.158;2023-06-10T01:30:43;100597.03;;;25.58;40.57
17649;BME280;8943;51.110;-4.158;2023-06-10T01:33:17;100600.78;;;25.57;39.99
17649;BME280;8943;51.110;-4.158;2023-06-10T01:35:47;100589.84;;;25.57;40.12
17649;BME280;8943;51.110;-4.158;2023-06-10T01:38:19;100601.63;;;25.51;40.70
17649;BME280;8943;51.110;-4.158;2023-06-10T01:40:52;100599.97;;;25.50;40.44
17649;BME280;8943;51.110;-4.158;2023-06-10T01:43:21;100595.56;;;25.49;40.06
17649;BME280;8943;51.110;-4.158;2023-06-10T01:45:49;100605.00;;;25.46;40.50
17649;BME280;8943;51.110;-4.158;2023-06-10T01:48:17;100601.22;;;25.47;40.75
17649;BME280;8943;51.110;-4.158;2023-06-10T01:50:45;100599.34;;;25.48;40.44
17649;BME280;8943;51.110;-4.158;2023-06-10T01:53:14;100599.34;;;25.48;40.52
17649;BME280;8943;51.110;-4.158;2023-06-10T01:55:43;100604.16;;;25.46;40.73
17649;BME280;8943;51.110;-4.158;2023-06-10T01:58:12;100590.13;;;25.49;40.42
17649;BME280;8943;51.110;-4.158;2023-06-10T02:00:40;100585.72;;;25.48;40.72
17649;BME280;8943;51.110;-4.158;2023-06-10T02:03:10;100599.97;;;25.50;40.29
17649;BME280;8943;51.110;-4.158;2023-06-10T02:05:39;100601.22;;;25.47;40.54
17649;BME280;8943;51.110;-4.158;2023-06-10T02:08:07;100603.31;;;25.52;40.48
17649;BME280;8943;51.110;-4.158;2023-06-10T02:10:35;100611.94;;;25.49;40.46
17649;BME280;8943;51.110;-4.158;2023-06-10T02:13:05;100614.88;;;25.54;40.42
17649;BME280;8943;51.110;-4.158;2023-06-10T02:15:33;100607.94;;;25.51;40.44
17649;BME280;8943;51.110;-4.158;2023-06-10T02:18:01;100608.34;;;25.55;40.29
17649;BME280;8943;51.110;-4.158;2023-06-10T02:20:30;100613.81;;;25.55;40.41
17649;BME280;8943;51.110;-4.158;2023-06-10T02:22:58;100614.22;;;25.52;40.32
17649;BME280;8943;51.110;-4.158;2023-06-10T02:25:26;100611.06;;;25.55;40.48
17649;BME280;8943;51.110;-4.158;2023-06-10T02:27:54;100606.03;;;25.52;40.18
17649;BME280;8943;51.110;-4.158;2023-06-10T02:30:24;100606.69;;;25.54;40.18
17649;BME280;8943;51.110;-4.158;2023-06-10T02:32:52;100597.84;;;25.52;40.44
17649;BME280;8943;51.110;-4.158;2023-06-10T02:35:23;100602.47;;;25.51;40.50
17649;BME280;8943;51.110;-4.158;2023-06-10T02:37:51;100597.66;;;25.47;40.59
17649;BME280;8943;51.110;-4.158;2023-06-10T02:40:19;100589.28;;;25.48;40.40
17649;BME280;8943;51.110;-4.158;2023-06-10T02:42:47;100589.47;;;25.47;40.58
17649;BME280;8943;51.110;-4.158;2023-06-10T02:45:16;100589.69;;;25.45;40.51
17649;BME280;8943;51.110;-4.158;2023-06-10T02:47:45;100590.13;;;25.49;40.39
17649;BME280;8943;51.110;-4.158;2023-06-10T02:50:13;100587.19;;;25.43;40.35
17649;BME280;8943;51.110;-4.158;2023-06-10T02:52:42;100582.16;;;25.40;40.42
17649;BME280;8943;51.110;-4.158;2023-06-10T02:55:10;100582.75;;;25.42;40.56
17649;BME280;8943;51.110;-4.158;2023-06-10T02:57:38;100579.84;;;25.44;40.49
17649;BME280;8943;51.110;-4.158;2023-06-10T03:00:07;100591.59;;;25.45;40.35
17649;BME280;8943;51.110;-4.158;2023-06-10T03:02:37;100573.34;;;25.38;40.45
17649;BME280;8943;51.110;-4.158;2023-06-10T03:05:08;100569.75;;;25.45;40.35
17649;BME280;8943;51.110;-4.158;2023-06-10T03:07:37;100563.28;;;25.32;40.52
17649;BME280;8943;51.110;-4.158;2023-06-10T03:10:07;100567.28;;;25.30;40.78
17649;BME280;8943;51.110;-4.158;2023-06-10T03:12:35;100563.94;;;25.21;41.40
17649;BME280;8943;51.110;-4.158;2023-06-10T03:15:04;100567.09;;;25.11;41.84
17649;BME280;8943;51.110;-4.158;2023-06-10T03:17:33;100567.94;;;24.99;42.04
17649;BME280;8943;51.110;-4.158;2023-06-10T03:20:02;100571.28;;;24.87;42.75
17649;BME280;8943;51.110;-4.158;2023-06-10T03:22:33;100574.84;;;24.81;43.18
17649;BME280;8943;51.110;-4.158;2023-06-10T03:25:02;100578.22;;;24.70;43.28
17649;BME280;8943;51.110;-4.158;2023-06-10T03:27:30;100569.19;;;24.63;43.70
17649;BME280;8943;51.110;-4.158;2023-06-10T03:29:59;100582.38;;;24.53;43.58
17649;BME280;8943;51.110;-4.158;2023-06-10T03:32:28;100587.38;;;24.49;44.30
17649;BME280;8943;51.110;-4.158;2023-06-10T03:34:57;100582.16;;;24.41;44.75
17649;BME280;8943;51.110;-4.158;2023-06-10T03:37:25;100579.81;;;24.31;44.90
17649;BME280;8943;51.110;-4.158;2023-06-10T03:39:55;100565.09;;;24.19;45.66
17649;BME280;8943;51.110;-4.158;2023-06-10T03:42:23;100561.75;;;24.17;45.55
17649;BME280;8943;51.110;-4.158;2023-06-10T03:44:51;100579.31;;;24.08;46.14
17649;BME280;8943;51.110;-4.158;2023-06-10T03:47:20;100588.09;;;24.03;46.04
17649;BME280;8943;51.110;-4.158;2023-06-10T03:49:50;100596.63;;;23.94;46.45
17649;BME280;8943;51.110;-4.158;2023-06-10T03:52:19;100585.13;;;23.92;46.46
17649;BME280;8943;51.110;-4.158;2023-06-10T03:54:48;100580.31;;;23.94;46.51
17649;BME280;8943;51.110;-4.158;2023-06-10T03:57:18;100588.47;;;23.94;46.79
17649;BME280;8943;51.110;-4.158;2023-06-10T03:59:46;100590.13;;;23.88;46.65
17649;BME280;8943;51.110;-4.158;2023-06-10T04:02:19;100581.91;;;23.81;46.79
17649;BME280;8943;51.110;-4.158;2023-06-10T04:04:48;100594.66;;;23.74;47.16
17649;BME280;8943;51.110;-4.158;2023-06-10T04:07:17;100604.34;;;23.83;47.03
17649;BME280;8943;51.110;-4.158;2023-06-10T04:09:47;100600.56;;;23.84;47.12
17649;BME280;8943;51.110;-4.158;2023-06-10T04:12:15;100599.13;;;23.88;47.07
17649;BME280;8943;51.110;-4.158;2023-06-10T04:14:45;100595.56;;;23.88;47.21
17649;BME280;8943;51.110;-4.158;2023-06-10T04:17:14;100597.44;;;23.87;47.29
17649;BME280;8943;51.110;-4.158;2023-06-10T04:19:43;100601.03;;;23.95;47.22
17649;BME280;8943;51.110;-4.158;2023-06-10T04:22:12;100600.84;;;23.96;47.27
17649;BME280;8943;51.110;-4.158;2023-06-10T04:24:40;100596.03;;;23.98;47.28
17649;BME280;8943;51.110;-4.158;2023-06-10T04:27:09;100599.81;;;23.97;47.21
17649;BME280;8943;51.110;-4.158;2023-06-10T04:29:38;100596.66;;;24.00;47.30
17649;BME280;8943;51.110;-4.158;2023-06-10T04:32:09;100605.03;;;24.05;47.21
17649;BME280;8943;51.110;-4.158;2023-06-10T04:34:43;100598.97;;;24.10;47.18
17649;BME280;8943;51.110;-4.158;2023-06-10T04:37:12;100591.03;;;24.08;47.08
17649;BME280;8943;51.110;-4.158;2023-06-10T08:53:06;100758.25;;;26.92;42.14
17649;BME280;8943;51.110;-4.158;2023-06-10T08:55:36;100760.53;;;27.02;42.31
17649;BME280;8943;51.110;-4.158;2023-06-10T08:58:05;100759.88;;;27.13;42.11
17649;BME280;8943;51.110;-4.158;2023-06-10T09:00:34;100771.28;;;27.35;41.81
17649;BME280;8943;51.110;-4.158;2023-06-10T09:03:04;100772.63;;;27.51;41.72
17649;BME280;8943;51.110;-4.158;2023-06-10T09:05:36;100767.09;;;27.58;41.59
17649;BME280;8943;51.110;-4.158;2023-06-10T09:08:07;100752.63;;;27.76;41.61
17649;BME280;8943;51.110;-4.158;2023-06-10T09:10:36;100760.56;;;27.84;41.20
17649;BME280;8943;51.110;-4.158;2023-06-10T09:13:04;100764.53;;;27.88;41.23
17649;BME280;8943;51.110;-4.158;2023-06-10T09:15:32;100755.81;;;27.97;41.13
17649;BME280;8943;51.110;-4.158;2023-06-10T09:18:00;100768.00;;;28.02;41.04
17649;BME280;8943;51.110;-4.158;2023-06-10T09:20:29;100769.34;;;27.92;40.95
17649;BME280;8943;51.110;-4.158;2023-06-10T09:22:57;100776.94;;;27.90;40.27
17649;BME280;8943;51.110;-4.158;2023-06-10T09:25:36;100789.69;;;27.78;40.58
17649;BME280;8943;51.110;-4.158;2023-06-10T09:28:05;100787.56;;;27.80;40.21
17649;BME280;8943;51.110;-4.158;2023-06-10T09:30:40;100792.28;;;27.73;40.38
17649;BME280;8943;51.110;-4.158;2023-06-10T09:33:12;100793.13;;;27.67;40.61
17649;BME280;8943;51.110;-4.158;2023-06-10T09:35:45;100783.47;;;27.64;40.63
17649;BME280;8943;51.110;-4.158;2023-06-10T09:38:15;100793.75;;;27.69;40.35
17649;BME280;8943;51.110;-4.158;2023-06-10T09:40:52;100796.91;;;27.66;40.34
17649;BME280;8943;51.110;-4.158;2023-06-10T09:43:21;100792.78;;;27.57;40.17
17649;BME280;8943;51.110;-4.158;2023-06-10T09:45:50;100801.28;;;27.49;40.67
17649;BME280;8943;51.110;-4.158;2023-06-10T09:48:20;100803.38;;;27.46;40.81
17649;BME280;8943;51.110;-4.158;2023-06-10T09:50:49;100797.41;;;27.31;41.18
17649;BME280;8943;51.110;-4.158;2023-06-10T09:53:17;100809.41;;;27.30;40.75
17649;BME280;8943;51.110;-4.158;2023-06-10T09:55:46;100808.59;;;27.23;41.17
17649;BME280;8943;51.110;-4.158;2023-06-10T09:58:15;100821.97;;;27.00;41.20
17649;BME280;8943;51.110;-4.158;2023-06-10T10:00:52;100814.25;;;26.83;41.58
17649;BME280;8943;51.110;-4.158;2023-06-10T10:03:24;100815.56;;;26.74;41.81
17649;BME280;8943;51.110;-4.158;2023-06-10T10:05:58;100811.47;;;26.52;42.18
17649;BME280;8943;51.110;-4.158;2023-06-10T10:08:27;100811.47;;;26.38;42.74
17649;BME280;8943;51.110;-4.158;2023-06-10T10:10:57;100815.47;;;26.29;42.84
17649;BME280;8943;51.110;-4.158;2023-06-10T10:13:48;100823.91;;;26.21;43.41
17649;BME280;8943;51.110;-4.158;2023-06-10T10:16:21;100829.59;;;26.13;43.84
17649;BME280;8943;51.110;-4.158;2023-06-10T10:18:55;100824.53;;;26.10;44.03
17649;BME280;8943;51.110;-4.158;2023-06-10T10:21:26;100814.06;;;26.07;44.25
17649;BME280;8943;51.110;-4.158;2023-06-10T10:24:01;100811.94;;;26.09;44.38
17649;BME280;8943;51.110;-4.158;2023-06-10T10:26:31;100827.72;;;26.07;44.66
17649;BME280;8943;51.110;-4.158;2023-06-10T10:29:07;100830.44;;;26.07;44.71
17649;BME280;8943;51.110;-4.158;2023-06-10T10:31:39;100839.69;;;25.92;44.99
17649;BME280;8943;51.110;-4.158;2023-06-10T10:34:12;100837.59;;;25.94;45.03
17649;BME280;8943;51.110;-4.158;2023-06-10T10:36:42;100849.97;;;25.90;45.07
17649;BME280;8943;51.110;-4.158;2023-06-10T10:39:10;100843.25;;;25.86;45.00
17649;BME280;8943;51.110;-4.158;2023-06-10T10:41:39;100836.13;;;25.79;45.66
17649;BME280;8943;51.110;-4.158;2023-06-10T10:44:10;100845.13;;;25.86;46.20
17649;BME280;8943;51.110;-4.158;2023-06-10T10:46:42;100840.50;;;25.86;46.05
17649;BME280;8943;51.110;-4.158;2023-06-10T10:49:13;100847.66;;;25.94;46.07
17649;BME280;8943;51.110;-4.158;2023-06-10T10:51:57;100845.97;;;26.00;46.06
17649;BME280;8943;51.110;-4.158;2023-06-10T10:54:30;100857.75;;;26.07;46.15
17649;BME280;8943;51.110;-4.158;2023-06-10T10:57:16;100839.66;;;26.06;46.25
17649;BME280;8943;51.110;-4.158;2023-06-10T10:59:52;100840.94;;;26.03;46.52
17649;BME280;8943;51.110;-4.158;2023-06-10T11:02:37;100852.28;;;26.07;46.54
17649;BME280;8943;51.110;-4.158;2023-06-10T11:05:11;100848.28;;;26.09;46.51
17649;BME280;8943;51.110;-4.158;2023-06-10T11:07:40;100848.47;;;26.14;46.60
17649;BME280;8943;51.110;-4.158;2023-06-10T11:10:09;100844.69;;;26.15;46.69
17649;BME280;8943;51.110;-4.158;2023-06-10T11:12:47;100844.91;;;26.14;47.08
17649;BME280;8943;51.110;-4.158;2023-06-10T11:15:20;100842.16;;;26.27;46.85
17649;BME280;8943;51.110;-4.158;2023-06-10T11:20:56;100832.09;;;26.28;46.73
17649;BME280;8943;51.110;-4.158;2023-06-10T11:23:29;100835.44;;;26.23;46.95
17649;BME280;8943;51.110;-4.158;2023-06-10T11:26:17;100832.09;;;26.28;46.75
17649;BME280;8943;51.110;-4.158;2023-06-10T11:29:02;100835.03;;;26.26;47.18
17649;BME280;8943;51.110;-4.158;2023-06-10T11:31:33;100825.59;;;26.22;46.95
17649;BME280;8943;51.110;-4.158;2023-06-10T11:34:03;100827.91;;;26.18;46.79
17649;BME280;8943;51.110;-4.158;2023-06-10T11:36:33;100840.94;;;26.16;47.22
17649;BME280;8943;51.110;-4.158;2023-06-10T11:39:03;100823.91;;;26.14;47.10
17649;BME280;8943;51.110;-4.158;2023-06-10T11:41:32;100826.22;;;26.17;46.92
17649;BME280;8943;51.110;-4.158;2023-06-10T11:44:04;100826.63;;;26.14;47.08
17649;BME280;8943;51.110;-4.158;2023-06-10T11:46:34;100824.13;;;26.26;46.94
17649;BME280;8943;51.110;-4.158;2023-06-10T11:49:05;100830.41;;;26.27;47.49
17649;BME280;8943;51.110;-4.158;2023-06-10T11:51:34;100825.75;;;26.34;47.66
17649;BME280;8943;51.110;-4.158;2023-06-10T11:54:03;100824.94;;;26.47;47.66
17649;BME280;8943;51.110;-4.158;2023-06-10T11:56:32;100816.88;;;26.65;47.71
17649;BME280;8943;51.110;-4.158;2023-06-10T11:59:02;100827.28;;;26.88;47.70
17649;BME280;8943;51.110;-4.158;2023-06-10T12:01:35;100828.91;;;27.09;47.62
17649;BME280;8943;51.110;-4.158;2023-06-10T12:04:11;100837.56;;;27.37;47.52
17649;BME280;8943;51.110;-4.158;2023-06-10T12:06:41;100833.63;;;27.58;47.31
17649;BME280;8943;51.110;-4.158;2023-06-10T12:09:14;100842.38;;;27.74;46.94
17649;BME280;8943;51.110;-4.158;2023-06-10T12:11:54;100833.78;;;27.95;46.73
17649;BME280;8943;51.110;-4.158;2023-06-10T12:14:50;100840.41;;;28.06;46.10
17649;BME280;8943;51.110;-4.158;2023-06-10T12:17:23;100835.81;;;28.06;45.90
17649;BME280;8943;51.110;-4.158;2023-06-10T12:19:52;100830.47;;;28.11;45.68
17649;BME280;8943;51.110;-4.158;2023-06-10T12:22:20;100832.16;;;28.12;45.57
17649;BME280;8943;51.110;-4.158;2023-06-10T12:25:00;100832.34;;;28.11;45.47
17649;BME280;8943;51.110;-4.158;2023-06-10T12:27:29;100834.94;;;28.06;45.50
17649;BME280;8943;51.110;-4.158;2023-06-10T12:29:59;100837.47;;;28.07;45.33
17649;BME280;8943;51.110;-4.158;2023-06-10T12:32:39;100830.09;;;28.08;45.53
17649;BME280;8943;51.110;-4.158;2023-06-10T12:35:09;100826.44;;;28.14;45.57
17649;BME280;8943;51.110;-4.158;2023-06-10T12:37:40;100838.19;;;28.21;45.73
17649;BME280;8943;51.110;-4.158;2023-06-10T12:40:11;100838.63;;;28.18;45.62
17649;BME280;8943;51.110;-4.158;2023-06-10T12:42:39;100838.38;;;28.19;45.11
17649;BME280;8943;51.110;-4.158;2023-06-10T12:45:09;100840.81;;;28.09;45.15
17649;BME280;8943;51.110;-4.158;2023-06-10T12:47:41;100838.31;;;28.08;45.15
17649;BME280;8943;51.110;-4.158;2023-06-10T12:50:11;100838.91;;;28.10;45.18
17649;BME280;8943;51.110;-4.158;2023-06-10T12:52:40;100840.22;;;28.07;45.30
17649;BME280;8943;51.110;-4.158;2023-06-10T12:55:09;100833.22;;;28.11;45.36
17649;BME280;8943;51.110;-4.158;2023-06-10T12:57:47;100828.19;;;28.08;44.79
17649;BME280;8943;51.110;-4.158;2023-06-10T13:00:17;100831.75;;;28.09;45.15
17649;BME280;8943;51.110;-4.158;2023-06-10T13:02:48;100834.06;;;28.12;45.02
17649;BME280;8943;51.110;-4.158;2023-06-10T13:05:17;100831.53;;;28.10;45.16
17649;BME280;8943;51.110;-4.158;2023-06-10T13:07:48;100828.09;;;28.15;45.15
17649;BME280;8943;51.110;-4.158;2023-06-10T13:10:16;100834.28;;;28.29;44.97
17649;BME280;8943;51.110;-4.158;2023-06-10T13:12:48;100839.84;;;28.22;45.12
17649;BME280;8943;51.110;-4.158;2023-06-10T13:15:18;100842.44;;;28.17;45.19
17649;BME280;8943;51.110;-4.158;2023-06-10T13:17:48;100839.38;;;28.25;45.20
17649;BME280;8943;51.110;-4.158;2023-06-10T13:20:18;100845.94;;;28.24;45.14
17649;BME280;8943;51.110;-4.158;2023-06-10T13:22:47;100851.13;;;28.32;45.28
17649;BME280;8943;51.110;-4.158;2023-06-10T13:25:16;100844.66;;;28.27;45.30
17649;BME280;8943;51.110;-4.158;2023-06-10T13:27:44;100854.06;;;28.37;45.42
17649;BME280;8943;51.110;-4.158;2023-06-10T13:30:13;100859.53;;;28.37;45.51
17649;BME280;8943;51.110;-4.158;2023-06-10T13:32:41;100847.22;;;28.46;45.50
17649;BME280;8943;51.110;-4.158;2023-06-10T13:35:11;100850.84;;;28.59;45.67
17649;BME280;8943;51.110;-4.158;2023-06-10T13:37:40;100853.22;;;28.73;45.82
17649;BME280;8943;51.110;-4.158;2023-06-10T13:40:09;100839.09;;;28.88;45.58
17649;BME280;8943;51.110;-4.158;2023-06-10T13:42:37;100844.59;;;29.07;45.49
17649;BME280;8943;51.110;-4.158;2023-06-10T13:45:06;100847.16;;;29.20;45.21
17649;BME280;8943;51.110;-4.158;2023-06-10T13:47:36;100834.22;;;29.39;45.29
17649;BME280;8943;51.110;-4.158;2023-06-10T13:50:06;100842.69;;;29.67;45.36
17649;BME280;8943;51.110;-4.158;2023-06-10T13:52:36;100847.94;;;29.81;46.33
17649;BME280;8943;51.110;-4.158;2023-06-10T13:55:05;100848.34;;;30.43;48.18
17649;BME280;8943;51.110;-4.158;2023-06-10T13:57:33;100853.03;;;31.51;47.41
17649;BME280;8943;51.110;-4.158;2023-06-10T14:00:02;100849.38;;;32.69;46.02
17649;BME280;8943;51.110;-4.158;2023-06-10T14:02:31;100848.94;;;33.80;43.81
17649;BME280;8943;51.110;-4.158;2023-06-10T14:04:59;100849.13;;;34.43;40.93
17649;BME280;8943;51.110;-4.158;2023-06-10T14:07:28;100848.47;;;34.73;39.38
17649;BME280;8943;51.110;-4.158;2023-06-10T14:09:57;100850.75;;;34.91;39.50
17649;BME280;8943;51.110;-4.158;2023-06-10T14:12:26;100845.13;;;35.59;39.29
17649;BME280;8943;51.110;-4.158;2023-06-10T14:14:54;100850.38;;;36.42;38.44
17649;BME280;8943;51.110;-4.158;2023-06-10T14:17:23;100854.13;;;37.31;36.58
17649;BME280;8943;51.110;-4.158;2023-06-10T14:19:51;100844.19;;;38.23;36.04
17649;BME280;8943;51.110;-4.158;2023-06-10T14:22:19;100854.31;;;38.91;34.46
17649;BME280;8943;51.110;-4.158;2023-06-10T14:24:47;100853.81;;;39.26;33.00
17649;BME280;8943;51.110;-4.158;2023-06-10T14:27:16;100858.25;;;39.46;31.68
17649;BME280;8943;51.110;-4.158;2023-06-10T14:29:45;100862.22;;;39.59;30.97
17649;BME280;8943;51.110;-4.158;2023-06-10T14:32:13;100855.69;;;39.69;30.95
17649;BME280;8943;51.110;-4.158;2023-06-10T14:34:41;100851.56;;;39.80;30.77
17649;BME280;8943;51.110;-4.158;2023-06-10T14:37:11;100850.75;;;39.79;30.27
17649;BME280;8943;51.110;-4.158;2023-06-10T14:39:39;100843.81;;;39.58;29.71
17649;BME280;8943;51.110;-4.158;2023-06-10T14:42:07;100839.44;;;39.19;29.68
17649;BME280;8943;51.110;-4.158;2023-06-10T14:44:37;100840.72;;;38.84;29.40
17649;BME280;8943;51.110;-4.158;2023-06-10T14:47:05;100831.88;;;38.29;29.59
17649;BME280;8943;51.110;-4.158;2023-06-10T14:49:33;100837.69;;;37.74;30.04
17649;BME280;8943;51.110;-4.158;2023-06-10T14:52:01;100836.31;;;37.32;30.64
17649;BME280;8943;51.110;-4.158;2023-06-10T14:54:30;100839.00;;;37.03;31.22
17649;BME280;8943;51.110;-4.158;2023-06-10T14:56:58;100835.13;;;36.99;32.03
17649;BME280;8943;51.110;-4.158;2023-06-10T14:59:26;100837.09;;;37.48;32.09
17649;BME280;8943;51.110;-4.158;2023-06-10T15:01:56;100836.44;;;38.20;31.85
17649;BME280;8943;51.110;-4.158;2023-06-10T15:04:26;100837.94;;;38.84;30.94
17649;BME280;8943;51.110;-4.158;2023-06-10T15:06:55;100841.72;;;39.12;29.95
17649;BME280;8943;51.110;-4.158;2023-06-10T15:09:23;100843.59;;;39.17;29.60
17649;BME280;8943;51.110;-4.158;2023-06-10T15:11:51;100843.75;;;39.06;29.31
17649;BME280;8943;51.110;-4.158;2023-06-10T15:14:19;100847.91;;;38.90;29.37
17649;BME280;8943;51.110;-4.158;2023-06-10T15:16:47;100839.72;;;38.75;29.46
17649;BME280;8943;51.110;-4.158;2023-06-10T15:19:16;100840.00;;;38.73;29.19
17649;BME280;8943;51.110;-4.158;2023-06-10T15:21:44;100845.78;;;38.82;29.37
17649;BME280;8943;51.110;-4.158;2023-06-10T15:24:13;100840.81;;;38.98;29.39
17649;BME280;8943;51.110;-4.158;2023-06-10T15:26:41;100848.81;;;39.42;29.25
17649;BME280;8943;51.110;-4.158;2023-06-10T15:29:09;100843.44;;;39.83;28.70
17649;BME280;8943;51.110;-4.158;2023-06-10T15:31:37;100845.06;;;40.31;28.30
17649;BME280;8943;51.110;-4.158;2023-06-10T15:34:06;100847.97;;;40.95;27.52
17649;BME280;8943;51.110;-4.158;2023-06-10T15:36:36;100844.88;;;41.77;26.59
17649;BME280;8943;51.110;-4.158;2023-06-10T15:39:05;100839.75;;;42.24;25.48
17649;BME280;8943;51.110;-4.158;2023-06-10T15:41:34;100839.69;;;42.55;24.81
17649;BME280;8943;51.110;-4.158;2023-06-10T15:44:02;100847.19;;;42.77;24.04
17649;BME280;8943;51.110;-4.158;2023-06-10T15:46:32;100840.94;;;42.72;23.50
17649;BME280;8943;51.110;-4.158;2023-06-10T15:49:01;100834.59;;;42.57;23.73
17649;BME280;8943;51.110;-4.158;2023-06-10T15:51:29;100832.84;;;42.61;23.77
17649;BME280;8943;51.110;-4.158;2023-06-10T15:53:59;100835.81;;;42.74;23.09
17649;BME280;8943;51.110;-4.158;2023-06-10T15:56:27;100831.59;;;43.02;23.32
17649;BME280;8943;51.110;-4.158;2023-06-10T15:58:55;100834.25;;;43.25;22.62
17649;BME280;8943;51.110;-4.158;2023-06-10T16:01:23;100842.34;;;43.35;22.45
17649;BME280;8943;51.110;-4.158;2023-06-10T16:03:51;100824.00;;;43.63;22.28
17649;BME280;8943;51.110;-4.158;2023-06-10T16:06:20;100819.97;;;43.99;22.06
17649;BME280;8943;51.110;-4.158;2023-06-10T16:08:48;100824.44;;;44.38;21.76
17649;BME280;8943;51.110;-4.158;2023-06-10T16:11:18;100824.06;;;44.78;21.50
17649;BME280;8943;51.110;-4.158;2023-06-10T16:13:48;100829.16;;;45.27;21.08
17649;BME280;8943;51.110;-4.158;2023-06-10T16:16:16;100817.94;;;45.72;20.58
17649;BME280;8943;51.110;-4.158;2023-06-10T16:18:44;100814.41;;;46.08;19.93
17649;BME280;8943;51.110;-4.158;2023-06-10T16:21:12;100813.63;;;46.32;19.87
17649;BME280;8943;51.110;-4.158;2023-06-10T16:23:40;100818.66;;;46.63;19.42
17649;BME280;8943;51.110;-4.158;2023-06-10T16:26:08;100824.72;;;47.02;19.02
17649;BME280;8943;51.110;-4.158;2023-06-10T16:28:38;100811.09;;;47.32;18.42
17649;BME280;8943;51.110;-4.158;2023-06-10T16:31:07;100817.56;;;47.61;18.24
17649;BME280;8943;51.110;-4.158;2023-06-10T16:33:35;100822.34;;;47.88;18.03
17649;BME280;8943;51.110;-4.158;2023-06-10T16:36:04;100816.25;;;48.02;17.77
17649;BME280;8943;51.110;-4.158;2023-06-10T16:38:32;100813.78;;;48.16;17.63
17649;BME280;8943;51.110;-4.158;2023-06-10T16:41:01;100806.84;;;48.30;17.38
17649;BME280;8943;51.110;-4.158;2023-06-10T16:43:29;100819.19;;;48.37;17.18
17649;BME280;8943;51.110;-4.158;2023-06-10T16:45:58;100822.84;;;48.38;16.70
17649;BME280;8943;51.110;-4.158;2023-06-10T16:48:27;100817.88;;;48.35;16.86
17649;BME280;8943;51.110;-4.158;2023-06-10T16:50:55;100816.84;;;48.08;16.79
17649;BME280;8943;51.110;-4.158;2023-06-10T16:53:23;100817.59;;;47.20;16.99
17649;BME280;8943;51.110;-4.158;2023-06-10T16:55:51;100814.31;;;46.29;17.52
17649;BME280;8943;51.110;-4.158;2023-06-10T16:58:19;100810.34;;;45.18;18.17
17649;BME280;8943;51.110;-4.158;2023-06-10T17:00:47;100806.09;;;43.94;19.04
17649;BME280;8943;51.110;-4.158;2023-06-10T17:03:18;100805.13;;;42.68;20.18
17649;BME280;8943;51.110;-4.158;2023-06-10T17:05:46;100811.47;;;41.50;20.80
17649;BME280;8943;51.110;-4.158;2023-06-10T17:08:15;100810.34;;;40.37;21.84
17649;BME280;8943;51.110;-4.158;2023-06-10T17:10:43;100806.09;;;39.28;23.07
17649;BME280;8943;51.110;-4.158;2023-06-10T17:13:11;100804.38;;;37.98;24.44
17649;BME280;8943;51.110;-4.158;2023-06-10T17:15:39;100808.59;;;36.73;25.43
17649;BME280;8943;51.110;-4.158;2023-06-10T17:18:08;100807.16;;;35.54;26.95
17649;BME280;8943;51.110;-4.158;2023-06-10T17:20:38;100809.69;;;34.63;28.51